Time;durP1;ratioP1;P1;durP2;ratioP2;P2;SDS_P1;SDS_P2;PMS_P1;PMS_P2;Temp;Humidity;BMP_temperature;BMP_pressure;BME280_temperature;BME280_humidity;BME280_pressure;Samples;Min_cycle;Max_cycle;Signal;HPM_P1;HPM_P2
2021/03/15 00:01:20;;;;;;;13.90;9.33;;;2.60;99.90;;;;;;4994611;28;20200;-83
2021/03/15 00:03:48;;;;;;;12.47;9.07;;;2.60;99.90;;;;;;4996279;28;20205;-83
2021/03/15 00:06:17;;;;;;;14.17;9.27;;;2.70;99.90;;;;;;4974354;28;20212;-83
2021/03/15 00:08:46;;;;;;;14.23;9.13;;;2.70;99.90;;;;;;4989239;28;20223;-84
2021/03/15 00:11:14;;;;;;;15.17;9.20;;;2.60;99.90;;;;;;4991574;28;20373;-84
2021/03/15 00:13:43;;;;;;;17.90;9.13;;;2.60;99.90;;;;;;4985064;28;20196;-83
2021/03/15 00:16:11;;;;;;;15.03;9.30;;;2.60;99.90;;;;;;4990092;28;20273;-82
2021/03/15 00:18:39;;;;;;;16.60;8.70;;;2.50;99.90;;;;;;4990918;28;20303;-84
2021/03/15 00:21:07;;;;;;;13.33;9.33;;;2.50;99.90;;;;;;4980804;28;20260;-81
2021/03/15 00:23:36;;;;;;;16.40;9.43;;;2.30;99.90;;;;;;4979312;28;20205;-81
2021/03/15 00:26:04;;;;;;;15.87;9.77;;;2.30;99.90;;;;;;4987236;28;20201;-83
2021/03/15 00:28:32;;;;;;;14.93;8.97;;;2.20;99.90;;;;;;4991633;28;20227;-82
2021/03/15 00:31:00;;;;;;;17.43;10.17;;;2.20;99.90;;;;;;4994687;28;20525;-84
2021/03/15 00:33:28;;;;;;;13.93;9.30;;;2.20;99.90;;;;;;4991932;28;20217;-82
2021/03/15 00:36:13;;;;;;;14.90;9.57;;;2.10;99.90;;;;;;4991560;28;20238;-83
2021/03/15 00:38:41;;;;;;;13.37;8.63;;;2.10;99.90;;;;;;4990705;28;20216;-83
2021/03/15 00:41:09;;;;;;;17.23;10.07;;;2.10;99.90;;;;;;4983050;28;20267;-84
2021/03/15 00:43:38;;;;;;;15.77;9.87;;;2.00;99.90;;;;;;4983099;28;20671;-82
2021/03/15 00:46:06;;;;;;;17.00;10.20;;;2.20;99.90;;;;;;4982852;28;20205;-84
2021/03/15 00:48:34;;;;;;;15.83;10.70;;;2.00;99.90;;;;;;4972965;28;20248;-83
2021/03/15 00:51:02;;;;;;;16.07;10.03;;;2.00;99.90;;;;;;4998433;28;20199;-85
2021/03/15 00:53:30;;;;;;;21.10;10.90;;;2.10;99.90;;;;;;4998271;28;20220;-83
2021/03/15 00:55:58;;;;;;;18.67;11.27;;;2.10;99.90;;;;;;4998510;28;20185;-83
2021/03/15 00:58:26;;;;;;;16.80;9.63;;;2.20;99.90;;;;;;4992266;28;20590;-84
2021/03/15 01:00:55;;;;;;;16.50;10.33;;;2.10;99.90;;;;;;4995643;28;20323;-82
2021/03/15 01:03:24;;;;;;;17.50;9.60;;;2.20;99.90;;;;;;4978718;28;20360;-84
2021/03/15 01:05:53;;;;;;;16.63;9.77;;;2.00;99.90;;;;;;4976447;28;20711;-82
2021/03/15 01:08:21;;;;;;;14.67;9.60;;;2.00;99.90;;;;;;4973477;28;20221;-82
2021/03/15 01:10:50;;;;;;;18.90;9.80;;;2.20;99.90;;;;;;4973375;28;20200;-82
2021/03/15 01:13:19;;;;;;;18.03;9.70;;;1.80;99.90;;;;;;4972366;28;20211;-82
2021/03/15 01:15:47;;;;;;;16.47;10.17;;;1.70;99.90;;;;;;4975815;28;20204;-84
2021/03/15 01:18:17;;;;;;;16.17;9.43;;;1.80;99.90;;;;;;4954021;28;20702;-82
2021/03/15 01:20:46;;;;;;;17.00;9.83;;;1.80;99.90;;;;;;4993285;28;20201;-82
2021/03/15 01:23:13;;;;;;;16.00;9.70;;;1.80;99.90;;;;;;4990888;28;20200;-84
2021/03/15 01:25:42;;;;;;;14.70;9.40;;;1.60;99.90;;;;;;5003118;28;20193;-83
2021/03/15 01:28:12;;;;;;;17.33;9.63;;;1.50;99.90;;;;;;4980304;28;20242;-83
2021/03/15 01:30:41;;;;;;;14.77;9.53;;;1.60;99.90;;;;;;4988334;28;20204;-83
2021/03/15 01:33:10;;;;;;;17.67;9.70;;;1.30;99.90;;;;;;4978497;28;20208;-82
2021/03/15 01:35:40;;;;;;;18.80;9.43;;;1.20;99.90;;;;;;4972657;28;20205;-83
2021/03/15 01:38:08;;;;;;;21.70;10.97;;;1.40;99.90;;;;;;4953974;28;20212;-83
2021/03/15 01:40:38;;;;;;;16.83;10.87;;;1.50;99.90;;;;;;4971424;28;20227;-83
2021/03/15 01:43:07;;;;;;;20.27;10.73;;;1.50;99.90;;;;;;4975543;28;20219;-83
2021/03/15 01:45:36;;;;;;;23.13;11.37;;;1.70;99.90;;;;;;4975629;28;20208;-83
2021/03/15 01:48:06;;;;;;;19.37;11.30;;;1.80;99.90;;;;;;4978047;28;20714;-83
2021/03/15 01:50:34;;;;;;;17.87;11.13;;;1.90;99.90;;;;;;4957505;28;20489;-83
2021/03/15 01:53:03;;;;;;;18.47;11.73;;;1.90;99.90;;;;;;4972504;28;20240;-83
2021/03/15 01:55:32;;;;;;;21.93;11.50;;;2.00;99.90;;;;;;4978695;28;20254;-83
2021/03/15 01:58:01;;;;;;;17.60;11.30;;;2.10;99.90;;;;;;4982096;28;20677;-81
2021/03/15 02:00:29;;;;;;;15.77;10.37;;;2.00;99.90;;;;;;4977523;28;20216;-84
2021/03/15 02:02:59;;;;;;;18.47;10.97;;;2.10;99.90;;;;;;4977415;28;20209;-82
2021/03/15 02:05:27;;;;;;;16.40;10.57;;;2.00;99.90;;;;;;4970072;28;20223;-82
2021/03/15 02:07:57;;;;;;;17.37;11.10;;;1.70;99.90;;;;;;4974219;28;20743;-83
2021/03/15 02:10:26;;;;;;;22.30;12.10;;;1.50;99.90;;;;;;4964882;28;20208;-83
2021/03/15 02:13:26;;;;;;;19.13;11.80;;;1.50;99.90;;;;;;4980625;28;20295;-83
2021/03/15 02:16:03;;;;;;;18.20;11.13;;;1.40;99.90;;;;;;4985806;28;20211;-82
2021/03/15 02:18:41;;;;;;;16.87;11.63;;;1.20;99.90;;;;;;4960687;28;20200;-84
2021/03/15 02:21:34;;;;;;;18.90;11.93;;;1.20;99.90;;;;;;4984856;28;20203;-83
2021/03/15 02:24:10;;;;;;;18.57;11.00;;;1.10;99.90;;;;;;4981172;28;20204;-80
2021/03/15 02:26:57;;;;;;;20.37;11.87;;;1.20;99.90;;;;;;4981048;28;20249;-83
2021/03/15 02:30:03;;;;;;;19.93;11.63;;;1.00;99.90;;;;;;4978680;28;20275;-84
2021/03/15 02:33:01;;;;;;;18.60;11.60;;;1.10;99.90;;;;;;4956990;28;20229;-83
2021/03/15 02:35:32;;;;;;;20.50;12.90;;;1.20;99.90;;;;;;4980362;28;20222;-82
2021/03/15 02:38:04;;;;;;;22.23;12.00;;;1.40;99.90;;;;;;4994942;28;20187;-84
2021/03/15 02:40:36;;;;;;;18.53;11.70;;;1.40;99.90;;;;;;4996869;28;20208;-84
2021/03/15 02:43:07;;;;;;;18.80;11.63;;;1.40;99.90;;;;;;4986078;28;20215;-82
2021/03/15 02:45:37;;;;;;;19.27;11.93;;;1.50;99.90;;;;;;4972781;28;20206;-83
2021/03/15 02:48:10;;;;;;;20.90;11.33;;;1.30;99.90;;;;;;4994750;28;20285;-84
2021/03/15 02:50:41;;;;;;;19.93;11.80;;;1.40;99.90;;;;;;4994732;28;20231;-83
2021/03/15 02:53:14;;;;;;;21.13;12.17;;;1.40;99.90;;;;;;4995267;28;20264;-80
2021/03/15 02:55:46;;;;;;;22.03;12.90;;;1.50;99.90;;;;;;4992832;28;20184;-84
2021/03/15 02:58:14;;;;;;;19.30;11.50;;;1.60;99.90;;;;;;4984457;28;20215;-84
2021/03/15 03:00:44;;;;;;;19.90;12.17;;;1.50;99.90;;;;;;4970363;28;20209;-83
2021/03/15 03:03:12;;;;;;;20.73;11.63;;;1.50;99.90;;;;;;4978111;28;20335;-83
2021/03/15 03:05:45;;;;;;;21.67;12.33;;;1.50;99.90;;;;;;4977656;28;20208;-82
2021/03/15 03:08:18;;;;;;;19.23;12.30;;;1.40;99.90;;;;;;4972949;28;20250;-84
2021/03/15 03:10:49;;;;;;;22.67;11.90;;;1.40;99.90;;;;;;4974776;28;20200;-83
2021/03/15 03:13:18;;;;;;;20.03;12.43;;;1.40;99.90;;;;;;4990322;28;20199;-83
2021/03/15 03:15:47;;;;;;;20.97;12.00;;;1.30;99.90;;;;;;4984240;28;20295;-81
2021/03/15 03:18:17;;;;;;;21.63;12.20;;;1.20;99.90;;;;;;4970065;28;20209;-83
2021/03/15 03:20:54;;;;;;;18.03;12.43;;;1.10;99.90;;;;;;4970686;28;20439;-85
2021/03/15 03:23:24;;;;;;;21.43;11.93;;;1.10;99.90;;;;;;4970358;28;20633;-83
2021/03/15 03:25:55;;;;;;;20.73;11.40;;;0.90;99.90;;;;;;4965527;28;20196;-82
2021/03/15 03:28:24;;;;;;;20.77;12.20;;;0.80;99.90;;;;;;4973055;28;20230;-83
2021/03/15 03:30:54;;;;;;;21.03;12.27;;;0.70;99.90;;;;;;4983954;28;20580;-81
2021/03/15 03:33:22;;;;;;;23.23;13.13;;;0.50;99.90;;;;;;4997546;28;20195;-83
2021/03/15 03:35:52;;;;;;;23.83;13.30;;;0.50;99.90;;;;;;4994190;28;20191;-82
2021/03/15 03:38:38;;;;;;;22.60;13.07;;;0.50;99.90;;;;;;4991561;28;20224;-82
2021/03/15 03:41:07;;;;;;;25.27;13.80;;;0.50;99.90;;;;;;4991073;28;20208;-83
2021/03/15 03:43:35;;;;;;;26.20;14.07;;;0.60;99.90;;;;;;4982325;28;20200;-83
2021/03/15 03:46:03;;;;;;;22.57;12.97;;;0.50;99.90;;;;;;4996617;28;20185;-85
2021/03/15 03:48:34;;;;;;;23.17;13.00;;;0.30;99.90;;;;;;4987157;28;20226;-82
2021/03/15 03:51:03;;;;;;;22.33;13.33;;;0.30;99.90;;;;;;4980758;28;20629;-83
2021/03/15 03:53:37;;;;;;;25.77;14.10;;;0.40;99.90;;;;;;4982965;28;20253;-82
2021/03/15 03:56:08;;;;;;;25.03;13.40;;;0.30;99.90;;;;;;4982998;28;20673;-83
2021/03/15 03:58:45;;;;;;;22.37;13.67;;;0.40;99.90;;;;;;4981258;28;20443;-83
2021/03/15 04:01:15;;;;;;;23.93;13.87;;;0.50;99.90;;;;;;4988646;28;20205;-83
2021/03/15 04:03:47;;;;;;;23.37;13.97;;;0.40;99.90;;;;;;4980801;28;20302;-82
2021/03/15 04:06:17;;;;;;;24.83;14.03;;;0.20;99.90;;;;;;4983664;28;20207;-82
2021/03/15 04:09:03;;;;;;;26.67;13.70;;;0.30;99.90;;;;;;4982699;28;20411;-82
2021/03/15 04:11:34;;;;;;;23.27;14.53;;;0.20;99.90;;;;;;4993427;28;20261;-82
2021/03/15 04:14:06;;;;;;;25.00;13.90;;;0.20;99.90;;;;;;4991560;28;20280;-83
2021/03/15 04:16:36;;;;;;;23.63;13.93;;;0.20;99.90;;;;;;4998660;28;20197;-83
2021/03/15 04:19:06;;;;;;;22.87;13.57;;;0.20;99.90;;;;;;4994114;28;20257;-81
2021/03/15 04:21:37;;;;;;;26.20;14.50;;;0.10;99.90;;;;;;4979073;28;20278;-83
2021/03/15 04:24:08;;;;;;;25.47;13.37;;;0.00;99.90;;;;;;4993908;28;20192;-83
2021/03/15 04:26:37;;;;;;;23.40;13.77;;;-0.10;99.90;;;;;;4985404;28;20200;-83
2021/03/15 04:29:07;;;;;;;25.00;12.97;;;-0.20;99.90;;;;;;4989370;28;20261;-83
2021/03/15 04:31:36;;;;;;;25.07;13.90;;;-0.30;99.90;;;;;;4989191;28;20218;-83
2021/03/15 04:34:05;;;;;;;22.93;14.37;;;-0.20;99.90;;;;;;4978607;28;20257;-82
2021/03/15 04:36:33;;;;;;;19.70;13.27;;;-0.20;99.90;;;;;;4978439;28;20207;-83
2021/03/15 04:39:05;;;;;;;22.83;14.13;;;-0.10;99.90;;;;;;4971392;28;20285;-83
2021/03/15 04:41:36;;;;;;;24.37;14.10;;;-0.10;99.90;;;;;;4976670;28;20481;-83
2021/03/15 04:44:07;;;;;;;26.20;14.20;;;-0.20;99.90;;;;;;4976429;28;20831;-83
2021/03/15 04:46:37;;;;;;;26.43;15.30;;;-0.40;99.90;;;;;;4989758;28;20215;-83
2021/03/15 04:49:07;;;;;;;21.90;14.10;;;-0.40;99.90;;;;;;4973118;28;20734;-84
2021/03/15 04:54:58;;;;;;;27.30;14.97;;;-0.30;99.90;;;;;;4991925;28;20485;-84
2021/03/15 04:57:29;;;;;;;26.93;15.23;;;-0.20;99.90;;;;;;4988636;28;20238;-83
2021/03/15 04:59:58;;;;;;;31.80;16.17;;;-0.20;99.90;;;;;;5000664;28;20192;-83
2021/03/15 05:02:27;;;;;;;31.83;17.50;;;-0.10;99.90;;;;;;4988222;28;20179;-82
2021/03/15 05:04:58;;;;;;;27.77;15.70;;;-0.10;99.90;;;;;;4970039;28;20208;-83
2021/03/15 05:07:26;;;;;;;27.30;16.00;;;0.00;99.90;;;;;;4989554;28;20302;-82
2021/03/15 05:09:57;;;;;;;28.23;15.23;;;0.20;99.90;;;;;;4955581;28;20918;-83
2021/03/15 05:12:27;;;;;;;31.93;17.67;;;0.30;99.90;;;;;;4976343;28;20204;-83
2021/03/15 05:14:57;;;;;;;31.30;17.93;;;0.40;99.90;;;;;;4971783;28;20211;-83
2021/03/15 05:17:28;;;;;;;30.17;17.53;;;0.50;99.90;;;;;;4976906;28;20226;-83
2021/03/15 05:19:58;;;;;;;31.73;17.57;;;0.70;99.90;;;;;;4972700;28;20292;-85
2021/03/15 05:22:27;;;;;;;29.93;17.13;;;0.70;99.90;;;;;;4969353;28;20209;-81
2021/03/15 05:24:58;;;;;;;33.03;17.93;;;1.00;99.90;;;;;;4980984;28;20516;-86
2021/03/15 05:27:29;;;;;;;32.33;18.27;;;1.10;99.90;;;;;;4981288;28;20546;-84
2021/03/15 05:29:59;;;;;;;31.90;17.60;;;1.20;99.90;;;;;;4969643;28;20235;-84
2021/03/15 05:32:28;;;;;;;29.10;16.87;;;1.30;99.90;;;;;;4971505;28;20212;-82
2021/03/15 05:34:56;;;;;;;30.30;16.63;;;1.40;99.90;;;;;;4973861;28;20200;-81
2021/03/15 05:37:27;;;;;;;28.53;16.47;;;1.60;99.90;;;;;;4974644;28;20762;-84
2021/03/15 05:40:15;;;;;;;25.60;15.90;;;1.60;99.90;;;;;;4974541;28;20507;-83
2021/03/15 05:42:58;;;;;;;27.73;16.17;;;1.70;99.90;;;;;;4983906;28;20276;-81
2021/03/15 05:46:17;;;;;;;24.77;15.67;;;1.80;99.90;;;;;;4991651;28;20579;-84
2021/03/15 05:49:10;;;;;;;26.27;15.37;;;1.80;99.90;;;;;;5000123;28;20267;-83
2021/03/15 05:52:04;;;;;;;26.17;15.70;;;1.90;99.90;;;;;;4974871;28;20215;-87
2021/03/15 05:55:07;;;;;;;25.60;15.87;;;2.00;99.90;;;;;;4995087;28;20189;-81
2021/03/15 05:58:10;;;;;;;25.97;15.50;;;2.00;99.90;;;;;;4943185;28;20212;-81
2021/03/15 06:01:05;;;;;;;26.80;16.23;;;2.10;99.90;;;;;;4980384;28;20207;-82
2021/03/15 06:04:16;;;;;;;23.57;15.17;;;2.20;99.90;;;;;;4971264;28;20232;-84
2021/03/15 06:06:48;;;;;;;29.13;15.87;;;2.20;99.90;;;;;;4993010;28;20489;-84
2021/03/15 06:09:20;;;;;;;23.73;15.47;;;2.30;99.90;;;;;;4992935;28;20219;-85
2021/03/15 06:11:51;;;;;;;25.00;16.07;;;2.30;99.90;;;;;;4998031;28;20209;-82
2021/03/15 06:14:24;;;;;;;25.63;16.40;;;2.40;99.90;;;;;;4988731;28;20177;-85
2021/03/15 06:16:54;;;;;;;26.40;18.00;;;2.40;99.90;;;;;;4978003;28;20287;-82
2021/03/15 06:19:24;;;;;;;27.50;18.40;;;2.50;99.90;;;;;;4976748;28;20200;-82
2021/03/15 06:21:53;;;;;;;25.03;17.93;;;2.50;99.90;;;;;;4964274;28;20323;-81
2021/03/15 06:24:22;;;;;;;27.23;18.23;;;2.60;99.90;;;;;;4961823;28;20208;-84
2021/03/15 06:26:51;;;;;;;25.03;16.77;;;2.60;99.90;;;;;;4968780;28;20194;-82
2021/03/15 06:29:20;;;;;;;26.43;16.70;;;2.70;99.90;;;;;;4971969;28;20225;-84
2021/03/15 06:31:50;;;;;;;29.93;18.30;;;2.80;99.90;;;;;;4978822;28;20202;-82
2021/03/15 06:34:24;;;;;;;25.80;17.13;;;2.80;99.90;;;;;;4973795;28;20763;-84
2021/03/15 06:36:56;;;;;;;27.13;17.17;;;2.90;99.60;;;;;;4967232;28;20204;-83
2021/03/15 06:39:27;;;;;;;32.30;17.27;;;3.00;99.50;;;;;;4964192;28;20247;-82
2021/03/15 06:41:58;;;;;;;29.93;18.37;;;3.10;99.40;;;;;;4968269;28;20205;-84
2021/03/15 06:44:27;;;;;;;30.67;18.63;;;3.10;98.50;;;;;;4965709;28;20211;-82
2021/03/15 06:46:55;;;;;;;27.10;18.67;;;3.10;98.80;;;;;;4987891;28;20617;-79
2021/03/15 06:49:24;;;;;;;32.03;18.70;;;3.10;97.90;;;;;;4974607;28;20641;-81
2021/03/15 06:52:10;;;;;;;33.87;19.70;;;3.10;97.80;;;;;;4957176;28;20305;-83
2021/03/15 06:54:38;;;;;;;31.20;18.07;;;3.20;98.60;;;;;;4960678;28;20216;-82
2021/03/15 06:57:18;;;;;;;33.70;19.47;;;3.30;98.80;;;;;;4969926;28;20230;-81
2021/03/15 06:59:49;;;;;;;32.37;18.93;;;3.40;97.30;;;;;;4970364;28;20211;-85
2021/03/15 07:02:29;;;;;;;32.00;18.60;;;3.40;97.10;;;;;;4977806;28;20275;-81
2021/03/15 07:05:08;;;;;;;32.13;19.50;;;3.50;96.30;;;;;;4981809;28;20199;-81
2021/03/15 07:07:49;;;;;;;34.90;19.20;;;3.50;96.20;;;;;;4937207;28;21046;-83
2021/03/15 07:10:20;;;;;;;32.63;19.83;;;3.60;96.30;;;;;;4931800;28;20634;-82
2021/03/15 07:12:49;;;;;;;35.00;20.37;;;3.60;96.80;;;;;;4984307;28;20192;-81
2021/03/15 07:15:20;;;;;;;36.57;21.00;;;3.60;97.00;;;;;;4987860;28;20210;-85
2021/03/15 07:17:49;;;;;;;36.27;20.73;;;3.60;97.10;;;;;;4969086;28;20561;-84
2021/03/15 07:20:19;;;;;;;38.30;21.03;;;3.70;96.80;;;;;;4955771;28;20219;-81
2021/03/15 07:22:48;;;;;;;38.63;22.07;;;3.70;97.00;;;;;;4962938;28;20683;-84
2021/03/15 07:25:19;;;;;;;42.40;22.00;;;3.80;97.40;;;;;;4983970;28;20678;-84
2021/03/15 07:27:52;;;;;;;39.63;23.43;;;3.80;97.70;;;;;;4982081;28;20223;-85
2021/03/15 07:30:37;;;;;;;42.67;22.63;;;3.90;97.40;;;;;;4978930;28;20231;-87
2021/03/15 07:33:07;;;;;;;45.83;24.53;;;4.00;97.50;;;;;;4981587;28;20200;-84
2021/03/15 07:35:38;;;;;;;38.83;22.53;;;4.10;96.40;;;;;;4982020;28;20231;-85
2021/03/15 07:38:07;;;;;;;40.53;23.57;;;4.10;95.60;;;;;;4986876;28;20195;-83
2021/03/15 07:40:44;;;;;;;37.13;22.30;;;4.10;96.40;;;;;;4965582;28;20387;-84
2021/03/15 07:43:15;;;;;;;40.07;20.90;;;4.00;97.10;;;;;;4986963;28;20207;-83
2021/03/15 07:46:16;;;;;;;36.90;21.40;;;4.10;97.60;;;;;;4983807;28;20422;-86
2021/03/15 07:48:47;;;;;;;41.33;21.80;;;4.10;96.80;;;;;;4967277;28;20255;-86
2021/03/15 07:51:37;;;;;;;40.00;22.20;;;4.20;97.00;;;;;;4988400;28;20220;-84
2021/03/15 07:54:14;;;;;;;36.00;21.33;;;4.30;96.30;;;;;;4989229;28;20432;-85
2021/03/15 07:56:43;;;;;;;32.23;19.77;;;4.40;96.60;;;;;;4972641;28;20228;-85
2021/03/15 07:59:14;;;;;;;35.83;19.43;;;4.40;95.50;;;;;;4970508;28;20216;-82
2021/03/15 08:01:44;;;;;;;34.90;17.87;;;4.40;95.60;;;;;;4983586;28;20193;-83
2021/03/15 08:04:14;;;;;;;31.97;19.37;;;4.40;95.20;;;;;;4969901;28;20331;-83
2021/03/15 08:06:44;;;;;;;37.17;19.40;;;4.40;95.00;;;;;;4965216;28;20268;-85
2021/03/15 08:09:15;;;;;;;32.70;17.57;;;4.40;95.20;;;;;;4980982;28;20620;-82
2021/03/15 08:11:52;;;;;;;30.90;18.60;;;4.40;95.80;;;;;;4964888;28;20231;-85
2021/03/15 08:14:22;;;;;;;30.97;19.00;;;4.50;95.80;;;;;;4967662;28;20205;-83
2021/03/15 08:17:00;;;;;;;32.43;17.63;;;4.50;96.20;;;;;;4993787;28;20196;-84
2021/03/15 08:19:32;;;;;;;33.53;19.33;;;4.60;95.80;;;;;;4993093;28;20423;-85
2021/03/15 08:22:03;;;;;;;33.83;19.43;;;4.80;94.40;;;;;;4991948;28;20261;-85
2021/03/15 08:24:38;;;;;;;31.93;19.10;;;4.80;93.70;;;;;;4996387;28;20200;-87
2021/03/15 08:27:15;;;;;;;34.77;18.97;;;5.00;94.00;;;;;;4998275;28;20216;-86
2021/03/15 08:29:56;;;;;;;35.33;20.37;;;4.90;93.10;;;;;;4995253;28;20220;-86
2021/03/15 08:32:34;;;;;;;34.73;20.07;;;5.00;93.30;;;;;;4991232;28;20197;-83
2021/03/15 08:35:03;;;;;;;37.00;20.13;;;5.00;93.20;;;;;;4979413;28;20712;-84
2021/03/15 08:37:49;;;;;;;34.40;19.33;;;5.00;93.20;;;;;;4984681;28;20238;-86
2021/03/15 08:40:53;;;;;;;36.10;19.63;;;5.10;93.10;;;;;;4990668;28;20204;-83
2021/03/15 08:43:38;;;;;;;34.50;19.10;;;5.30;93.00;;;;;;4993236;28;20279;-82
2021/03/15 08:46:12;;;;;;;37.27;20.07;;;5.30;92.70;;;;;;4985683;28;20770;-84
2021/03/15 08:48:52;;;;;;;35.97;20.40;;;5.30;92.50;;;;;;4987488;28;20193;-84
2021/03/15 08:51:45;;;;;;;31.07;19.17;;;5.40;92.40;;;;;;4981558;28;20201;-85
2021/03/15 08:54:38;;;;;;;32.60;19.53;;;5.50;92.10;;;;;;4977518;28;20227;-85
2021/03/15 08:57:09;;;;;;;34.20;19.17;;;5.60;92.00;;;;;;4975266;28;20320;-85
2021/03/15 08:59:37;;;;;;;31.97;19.33;;;5.60;91.40;;;;;;4962178;28;20259;-85
2021/03/15 09:02:07;;;;;;;30.77;19.10;;;5.60;91.30;;;;;;4964999;28;20269;-85
2021/03/15 09:04:47;;;;;;;32.63;19.37;;;5.70;91.50;;;;;;4970488;28;20218;-84
2021/03/15 09:07:43;;;;;;;30.33;18.00;;;5.90;91.00;;;;;;4987899;28;20428;-84
2021/03/15 09:10:43;;;;;;;28.93;17.43;;;6.10;90.80;;;;;;4955034;28;20327;-84
2021/03/15 09:13:31;;;;;;;33.37;18.53;;;6.30;90.10;;;;;;4973662;28;20205;-84
2021/03/15 09:16:13;;;;;;;31.23;16.77;;;6.30;90.10;;;;;;4958341;28;20695;-85
2021/03/15 09:18:56;;;;;;;27.90;15.10;;;6.50;90.00;;;;;;4992651;28;20308;-84
2021/03/15 09:21:53;;;;;;;24.80;14.70;;;6.60;88.70;;;;;;4982107;28;20277;-83
2021/03/15 09:24:49;;;;;;;23.73;14.70;;;6.60;88.20;;;;;;4978126;28;20207;-84
2021/03/15 09:27:39;;;;;;;22.50;13.87;;;6.70;88.10;;;;;;4967282;28;20192;-85
2021/03/15 09:30:11;;;;;;;23.30;14.27;;;6.80;87.50;;;;;;4987187;28;20542;-84
2021/03/15 09:32:41;;;;;;;22.27;14.23;;;6.90;88.10;;;;;;4996722;28;20215;-85
2021/03/15 09:35:22;;;;;;;25.73;14.33;;;6.90;87.60;;;;;;4990601;28;20490;-84
2021/03/15 09:37:57;;;;;;;23.60;13.87;;;7.00;87.10;;;;;;5036142;23;20255;-85
2021/03/15 09:40:31;;;;;;;24.07;14.47;;;7.00;86.80;;;;;;4964360;28;20188;-86
2021/03/15 09:43:01;;;;;;;27.97;14.70;;;7.10;86.50;;;;;;4993441;23;20240;-82
2021/03/15 09:45:38;;;;;;;22.27;14.47;;;7.10;86.80;;;;;;4946601;28;20224;-86
2021/03/15 09:48:30;;;;;;;24.30;14.97;;;7.20;87.10;;;;;;4947577;28;20216;-81
2021/03/15 09:51:03;;;;;;;23.27;14.03;;;7.40;86.60;;;;;;4949381;28;20247;-84
2021/03/15 09:53:36;;;;;;;23.83;14.40;;;7.40;86.40;;;;;;4962959;28;20229;-83
2021/03/15 09:56:05;;;;;;;22.03;13.87;;;7.50;86.50;;;;;;4965125;28;20296;-83
2021/03/15 09:58:36;;;;;;;19.60;13.60;;;7.60;85.80;;;;;;4953764;28;20691;-84
2021/03/15 10:01:10;;;;;;;23.33;14.63;;;7.60;85.50;;;;;;4951013;28;20751;-82
2021/03/15 10:03:38;;;;;;;22.47;14.60;;;7.60;85.60;;;;;;4957548;28;20192;-82
2021/03/15 10:06:07;;;;;;;22.03;13.80;;;7.50;85.50;;;;;;4971773;28;20320;-84
2021/03/15 10:08:36;;;;;;;24.30;14.77;;;7.50;86.10;;;;;;4972234;28;20216;-82
2021/03/15 10:11:05;;;;;;;25.53;14.83;;;7.60;86.50;;;;;;4956085;28;20655;-83
2021/03/15 10:13:37;;;;;;;22.93;14.77;;;7.70;85.80;;;;;;4961183;28;20229;-81
2021/03/15 10:16:06;;;;;;;22.70;14.73;;;7.90;85.20;;;;;;4959723;28;20204;-81
2021/03/15 10:18:35;;;;;;;24.17;15.80;;;7.90;85.30;;;;;;4965057;28;20868;-81
2021/03/15 10:21:04;;;;;;;23.53;15.50;;;8.00;85.10;;;;;;4927496;28;20648;-84
2021/03/15 10:23:32;;;;;;;25.10;15.43;;;8.10;84.80;;;;;;4946008;28;20667;-83
2021/03/15 10:26:04;;;;;;;26.07;15.13;;;8.00;84.50;;;;;;4948920;28;20292;-83
2021/03/15 10:28:33;;;;;;;22.80;15.10;;;7.80;84.90;;;;;;4943998;28;20197;-83
2021/03/15 10:31:19;;;;;;;24.33;15.07;;;7.80;85.00;;;;;;4957430;28;20213;-83
2021/03/15 10:33:49;;;;;;;26.37;15.97;;;7.70;85.30;;;;;;4956215;28;20633;-82
2021/03/15 10:36:18;;;;;;;24.90;15.07;;;7.70;85.60;;;;;;4963886;28;20205;-84
2021/03/15 10:38:50;;;;;;;25.17;15.27;;;7.70;85.70;;;;;;4966988;28;20651;-82
2021/03/15 10:41:22;;;;;;;25.07;15.97;;;7.80;85.80;;;;;;4932214;28;20253;-81
2021/03/15 10:43:51;;;;;;;24.50;15.43;;;7.80;85.40;;;;;;4955920;28;20216;-83
2021/03/15 10:46:23;;;;;;;23.53;15.60;;;7.80;85.30;;;;;;4961154;28;20495;-82
2021/03/15 10:48:55;;;;;;;24.13;14.23;;;7.80;85.40;;;;;;4952063;28;20205;-79
2021/03/15 10:51:27;;;;;;;21.33;12.87;;;7.90;85.10;;;;;;4962885;28;20228;-83
2021/03/15 10:54:25;;;;;;;20.40;13.80;;;8.10;84.10;;;;;;4946631;28;20236;-80
2021/03/15 10:57:26;;;;;;;17.80;12.47;;;8.10;84.10;;;;;;4961493;28;20212;-82
2021/03/15 10:59:54;;;;;;;16.53;12.33;;;8.30;84.00;;;;;;4904696;29;20270;-80
2021/03/15 11:02:24;;;;;;;19.53;13.23;;;8.60;83.90;;;;;;4943502;28;20255;-81
2021/03/15 11:04:55;;;;;;;17.07;12.43;;;8.80;83.50;;;;;;4971085;28;20208;-82
2021/03/15 11:07:26;;;;;;;15.80;11.40;;;9.00;82.80;;;;;;4957180;28;20201;-81
2021/03/15 11:10:04;;;;;;;16.03;10.43;;;9.10;82.10;;;;;;4952008;28;20244;-81
2021/03/15 11:12:44;;;;;;;15.43;9.80;;;9.20;81.90;;;;;;4939083;28;20442;-82
2021/03/15 11:15:20;;;;;;;16.50;9.80;;;9.10;81.20;;;;;;4947491;28;20276;-83
2021/03/15 11:18:03;;;;;;;15.67;10.23;;;9.00;81.30;;;;;;4946727;28;20204;-81
2021/03/15 11:20:43;;;;;;;15.17;10.57;;;8.90;81.40;;;;;;4955944;28;20231;-82
2021/03/15 11:23:11;;;;;;;18.33;11.23;;;8.70;81.60;;;;;;4954612;28;20391;-82
2021/03/15 11:25:41;;;;;;;15.63;10.90;;;8.60;82.00;;;;;;4948873;28;20255;-82
2021/03/15 11:28:13;;;;;;;15.77;11.57;;;8.60;82.30;;;;;;4945087;28;20209;-80
2021/03/15 11:30:44;;;;;;;17.07;10.37;;;8.60;82.20;;;;;;4958841;28;20245;-81
2021/03/15 11:33:14;;;;;;;15.27;10.33;;;8.40;82.10;;;;;;4945782;28;20293;-81
2021/03/15 11:35:42;;;;;;;14.90;10.30;;;8.20;82.30;;;;;;4965131;28;20224;-82
2021/03/15 11:38:10;;;;;;;17.20;11.20;;;8.10;82.50;;;;;;4950745;28;20591;-81
2021/03/15 11:40:40;;;;;;;15.60;10.73;;;8.10;82.70;;;;;;4950122;28;20220;-84
2021/03/15 11:43:09;;;;;;;15.63;11.23;;;8.00;82.70;;;;;;4948985;28;20235;-82
2021/03/15 11:45:38;;;;;;;15.07;11.27;;;8.00;82.90;;;;;;4947560;28;20205;-82
2021/03/15 11:48:08;;;;;;;17.47;10.97;;;8.10;82.90;;;;;;4949562;28;20205;-80
2021/03/15 11:50:38;;;;;;;18.70;12.47;;;8.20;83.00;;;;;;4949475;28;20232;-84
2021/03/15 11:53:08;;;;;;;17.27;11.83;;;8.30;82.60;;;;;;4927736;28;20317;-81
2021/03/15 11:55:36;;;;;;;19.60;12.57;;;8.30;82.30;;;;;;4963107;28;20210;-84
2021/03/15 11:58:05;;;;;;;17.37;11.30;;;8.30;82.30;;;;;;4952977;28;20695;-86
2021/03/15 12:00:33;;;;;;;18.23;11.97;;;8.30;81.90;;;;;;4948254;28;20388;-83
2021/03/15 12:03:03;;;;;;;17.50;12.00;;;8.30;82.10;;;;;;4974365;28;20292;-79
2021/03/15 12:05:31;;;;;;;19.70;12.17;;;8.40;81.90;;;;;;4947086;28;20205;-80
2021/03/15 12:08:00;;;;;;;19.97;12.00;;;8.30;81.70;;;;;;4955423;28;20210;-84
2021/03/15 12:10:32;;;;;;;16.30;11.67;;;8.40;81.80;;;;;;4955152;28;20248;-80
2021/03/15 12:13:01;;;;;;;20.90;12.10;;;8.50;81.30;;;;;;4935287;28;20609;-80
2021/03/15 12:15:29;;;;;;;18.73;11.70;;;8.50;81.50;;;;;;4952958;28;20812;-83
2021/03/15 12:18:06;;;;;;;14.53;11.63;;;8.50;81.50;;;;;;4941778;28;20209;-81
2021/03/15 12:20:34;;;;;;;16.73;11.37;;;8.70;81.50;;;;;;4954927;28;20239;-83
2021/03/15 12:23:04;;;;;;;16.17;11.53;;;8.70;80.90;;;;;;4962377;28;20494;-82
2021/03/15 12:25:32;;;;;;;20.13;12.53;;;8.80;81.20;;;;;;4952119;28;20910;-81
2021/03/15 12:28:01;;;;;;;17.27;12.13;;;8.90;81.10;;;;;;4948198;28;20217;-82
2021/03/15 12:30:29;;;;;;;15.03;11.23;;;9.10;81.10;;;;;;4956017;28;20227;-81
2021/03/15 12:32:57;;;;;;;14.07;10.73;;;9.20;80.70;;;;;;4950768;28;20494;-83
2021/03/15 12:35:28;;;;;;;14.80;11.27;;;9.30;80.40;;;;;;4948801;28;20201;-82
2021/03/15 12:37:56;;;;;;;15.53;11.03;;;9.40;80.40;;;;;;4948937;28;20616;-83
2021/03/15 12:40:24;;;;;;;12.90;11.00;;;9.40;79.90;;;;;;4958460;28;20656;-80
2021/03/15 12:42:52;;;;;;;17.00;11.33;;;9.40;80.10;;;;;;4958584;28;20194;-83
2021/03/15 12:45:20;;;;;;;14.10;10.87;;;9.20;80.10;;;;;;4973641;28;20181;-79
2021/03/15 12:47:53;;;;;;;16.60;11.37;;;9.10;80.00;;;;;;4976779;28;20189;-84
2021/03/15 12:50:21;;;;;;;15.33;12.03;;;9.10;80.20;;;;;;4968174;28;20213;-81
2021/03/15 12:52:50;;;;;;;15.40;10.60;;;9.00;80.40;;;;;;4970634;28;20205;-84
2021/03/15 12:55:18;;;;;;;16.77;11.70;;;8.90;80.30;;;;;;4958526;28;20201;-82
2021/03/15 12:57:46;;;;;;;15.10;10.90;;;8.80;80.30;;;;;;4975460;28;20223;-82
2021/03/15 13:00:17;;;;;;;15.60;11.03;;;8.60;80.50;;;;;;5048172;23;20240;-84
2021/03/15 13:02:45;;;;;;;17.30;10.97;;;8.60;80.50;;;;;;4982794;28;20623;-85
2021/03/15 13:05:15;;;;;;;13.03;9.77;;;8.50;80.40;;;;;;4982257;28;20378;-84
2021/03/15 13:07:44;;;;;;;14.30;10.43;;;8.60;80.70;;;;;;4984557;28;20504;-85
2021/03/15 13:10:14;;;;;;;14.37;10.30;;;8.60;80.70;;;;;;4975064;28;20232;-83
2021/03/15 13:12:43;;;;;;;13.97;9.97;;;8.70;80.60;;;;;;4976089;28;20209;-81